sensor_id;sensor_type;location;lat;lon;timestamp;temperature;humidity
13344;DHT22;6741;48.964;9.406;2023-02-14T00:02:26;-0.70;99.90
13344;DHT22;6741;48.964;9.406;2023-02-14T00:04:53;-0.70;99.90
13344;DHT22;6741;48.964;9.406;2023-02-14T00:07:20;-0.60;99.90
13344;DHT22;6741;48.964;9.406;2023-02-14T00:09:47;-0.70;99.90
13344;DHT22;6741;48.964;9.406;2023-02-14T00:12:14;-0.70;99.90
13344;DHT22;6741;48.964;9.406;2023-02-14T00:14:41;-0.60;99.90
13344;DHT22;6741;48.964;9.406;2023-02-14T00:17:27;-0.70;99.90
13344;DHT22;6741;48.964;9.406;2023-02-14T00:19:54;-0.80;99.90
13344;DHT22;6741;48.964;9.406;2023-02-14T00:22:20;-0.90;99.90
13344;DHT22;6741;48.964;9.406;2023-02-14T00:24:47;-0.90;99.90
13344;DHT22;6741;48.964;9.406;2023-02-14T00:27:14;-0.90;99.90
13344;DHT22;6741;48.964;9.406;2023-02-14T00:29:41;-0.80;99.90
13344;DHT22;6741;48.964;9.406;2023-02-14T00:32:08;-0.80;99.90
13344;DHT22;6741;48.964;9.406;2023-02-14T00:34:36;-0.70;99.90
13344;DHT22;6741;48.964;9.406;2023-02-14T00:37:03;-0.20;99.90
13344;DHT22;6741;48.964;9.406;2023-02-14T00:39:30;-0.10;99.90
13344;DHT22;6741;48.964;9.406;2023-02-14T00:41:57;-0.40;99.90
13344;DHT22;6741;48.964;9.406;2023-02-14T00:44:24;-0.60;99.90
13344;DHT22;6741;48.964;9.406;2023-02-14T00:46:51;-0.50;99.90
13344;DHT22;6741;48.964;9.406;2023-02-14T00:49:18;-0.60;99.90
13344;DHT22;6741;48.964;9.406;2023-02-14T00:51:46;-0.60;99.90
13344;DHT22;6741;48.964;9.406;2023-02-14T00:54:13;-0.60;99.90
13344;DHT22;6741;48.964;9.406;2023-02-14T00:56:40;-0.60;99.90
13344;DHT22;6741;48.964;9.406;2023-02-14T00:59:07;-0.60;99.90
13344;DHT22;6741;48.964;9.406;2023-02-14T01:01:34;-0.70;99.90
13344;DHT22;6741;48.964;9.406;2023-02-14T01:04:01;-0.70;99.90
13344;DHT22;6741;48.964;9.406;2023-02-14T01:06:28;-0.60;99.90
13344;DHT22;6741;48.964;9.406;2023-02-14T01:08:56;-0.70;99.90
13344;DHT22;6741;48.964;9.406;2023-02-14T01:11:24;-0.60;99.90
13344;DHT22;6741;48.964;9.406;2023-02-14T01:13:52;-0.60;99.90
13344;DHT22;6741;48.964;9.406;2023-02-14T01:16:22;-0.60;99.90
13344;DHT22;6741;48.964;9.406;2023-02-14T01:18:49;-0.70;99.90
13344;DHT22;6741;48.964;9.406;2023-02-14T01:21:18;-0.70;99.90
13344;DHT22;6741;48.964;9.406;2023-02-14T01:23:47;-0.70;99.90
13344;DHT22;6741;48.964;9.406;2023-02-14T01:26:16;-0.70;99.90
13344;DHT22;6741;48.964;9.406;2023-02-14T01:28:44;-0.70;99.90
13344;DHT22;6741;48.964;9.406;2023-02-14T01:31:13;-0.70;99.90
13344;DHT22;6741;48.964;9.406;2023-02-14T01:33:42;-0.70;99.90
13344;DHT22;6741;48.964;9.406;2023-02-14T01:36:15;-0.70;99.90
13344;DHT22;6741;48.964;9.406;2023-02-14T01:38:42;-0.70;99.90
13344;DHT22;6741;48.964;9.406;2023-02-14T01:41:09;-0.70;99.90
13344;DHT22;6741;48.964;9.406;2023-02-14T01:43:54;-0.70;99.90
13344;DHT22;6741;48.964;9.406;2023-02-14T01:46:22;-0.30;99.90
13344;DHT22;6741;48.964;9.406;2023-02-14T01:48:50;-0.50;99.90
13344;DHT22;6741;48.964;9.406;2023-02-14T01:51:19;-0.60;99.90
13344;DHT22;6741;48.964;9.406;2023-02-14T01:53:46;-0.70;99.90
13344;DHT22;6741;48.964;9.406;2023-02-14T01:56:20;-0.70;99.90
13344;DHT22;6741;48.964;9.406;2023-02-14T01:58:52;-0.70;99.90
13344;DHT22;6741;48.964;9.406;2023-02-14T02:01:20;-0.70;99.90
13344;DHT22;6741;48.964;9.406;2023-02-14T02:03:51;-0.70;99.90
13344;DHT22;6741;48.964;9.406;2023-02-14T02:06:24;-0.80;99.90
13344;DHT22;6741;48.964;9.406;2023-02-14T02:09:01;-0.80;99.90
13344;DHT22;6741;48.964;9.406;2023-02-14T02:11:31;-0.80;99.90
13344;DHT22;6741;48.964;9.406;2023-02-14T02:14:00;-0.90;99.90
13344;DHT22;6741;48.964;9.406;2023-02-14T02:16:53;-1.20;99.90
13344;DHT22;6741;48.964;9.406;2023-02-14T02:20:21;-1.00;99.90
13344;DHT22;6741;48.964;9.406;2023-02-14T02:23:26;-0.90;99.90
13344;DHT22;6741;48.964;9.406;2023-02-14T02:32:48;-1.10;99.90
13344;DHT22;6741;48.964;9.406;2023-02-14T02:35:39;-0.60;99.90
13344;DHT22;6741;48.964;9.406;2023-02-14T02:38:17;-0.60;99.90
13344;DHT22;6741;48.964;9.406;2023-02-14T02:40:51;-0.70;99.90
13344;DHT22;6741;48.964;9.406;2023-02-14T02:43:33;-0.80;99.90
13344;DHT22;6741;48.964;9.406;2023-02-14T02:46:09;-0.80;99.90
13344;DHT22;6741;48.964;9.406;2023-02-14T02:48:58;-0.90;99.90
13344;DHT22;6741;48.964;9.406;2023-02-14T02:51:32;-0.90;99.90
13344;DHT22;6741;48.964;9.406;2023-02-14T02:54:22;-0.90;99.90
13344;DHT22;6741;48.964;9.406;2023-02-14T02:56:56;-0.90;99.90
13344;DHT22;6741;48.964;9.406;2023-02-14T02:59:28;-0.90;99.90
13344;DHT22;6741;48.964;9.406;2023-02-14T03:02:06;-0.90;99.90
13344;DHT22;6741;48.964;9.406;2023-02-14T03:04:37;-0.80;99.90
13344;DHT22;6741;48.964;9.406;2023-02-14T03:07:29;-0.40;99.90
13344;DHT22;6741;48.964;9.406;2023-02-14T03:10:07;-0.70;99.90
13344;DHT22;6741;48.964;9.406;2023-02-14T03:15:59;-0.80;99.90
13344;DHT22;6741;48.964;9.406;2023-02-14T03:18:47;-0.90;99.90
13344;DHT22;6741;48.964;9.406;2023-02-14T03:21:41;-0.90;99.90
13344;DHT22;6741;48.964;9.406;2023-02-14T03:24:20;-1.00;99.90
13344;DHT22;6741;48.964;9.406;2023-02-14T03:26:54;-0.90;99.90
13344;DHT22;6741;48.964;9.406;2023-02-14T03:29:26;-0.90;99.90
13344;DHT22;6741;48.964;9.406;2023-02-14T03:32:00;-0.90;99.90
13344;DHT22;6741;48.964;9.406;2023-02-14T03:34:32;-0.80;99.90
13344;DHT22;6741;48.964;9.406;2023-02-14T03:37:04;-0.60;99.90
13344;DHT22;6741;48.964;9.406;2023-02-14T03:39:41;-0.80;99.90
13344;DHT22;6741;48.964;9.406;2023-02-14T03:42:13;-0.80;99.90
13344;DHT22;6741;48.964;9.406;2023-02-14T03:44:42;-0.90;99.90
13344;DHT22;6741;48.964;9.406;2023-02-14T03:47:12;-0.90;99.90
13344;DHT22;6741;48.964;9.406;2023-02-14T03:49:42;-0.90;99.90
13344;DHT22;6741;48.964;9.406;2023-02-14T03:52:11;-0.90;99.90
13344;DHT22;6741;48.964;9.406;2023-02-14T03:54:41;-0.90;99.90
13344;DHT22;6741;48.964;9.406;2023-02-14T03:57:15;-0.90;99.90
13344;DHT22;6741;48.964;9.406;2023-02-14T03:59:44;-0.90;99.90
13344;DHT22;6741;48.964;9.406;2023-02-14T04:02:14;-0.90;99.90
13344;DHT22;6741;48.964;9.406;2023-02-14T04:04:44;-0.90;99.90
13344;DHT22;6741;48.964;9.406;2023-02-14T04:07:14;-1.00;99.90
13344;DHT22;6741;48.964;9.406;2023-02-14T04:09:43;-1.00;99.90
13344;DHT22;6741;48.964;9.406;2023-02-14T04:12:11;-0.80;99.90
13344;DHT22;6741;48.964;9.406;2023-02-14T04:14:38;-0.70;99.90
13344;DHT22;6741;48.964;9.406;2023-02-14T04:17:05;-0.90;99.90
13344;DHT22;6741;48.964;9.406;2023-02-14T04:19:49;-0.90;99.90
13344;DHT22;6741;48.964;9.406;2023-02-14T04:22:16;-1.00;99.90
13344;DHT22;6741;48.964;9.406;2023-02-14T04:24:45;-1.00;99.90
13344;DHT22;6741;48.964;9.406;2023-02-14T04:27:12;-1.00;99.90
13344;DHT22;6741;48.964;9.406;2023-02-14T04:29:43;-1.00;99.90
13344;DHT22;6741;48.964;9.406;2023-02-14T04:32:13;-1.00;99.90
13344;DHT22;6741;48.964;9.406;2023-02-14T04:34:40;-1.00;99.90
13344;DHT22;6741;48.964;9.406;2023-02-14T04:37:07;-0.90;99.90
13344;DHT22;6741;48.964;9.406;2023-02-14T04:39:35;-0.60;99.90
13344;DHT22;6741;48.964;9.406;2023-02-14T04:42:04;-0.80;99.90
13344;DHT22;6741;48.964;9.406;2023-02-14T04:44:31;-0.90;99.90
13344;DHT22;6741;48.964;9.406;2023-02-14T04:46:59;-0.90;99.90
13344;DHT22;6741;48.964;9.406;2023-02-14T04:49:26;-0.90;99.90
13344;DHT22;6741;48.964;9.406;2023-02-14T04:51:53;-1.00;99.90
13344;DHT22;6741;48.964;9.406;2023-02-14T04:54:20;-1.00;99.90
13344;DHT22;6741;48.964;9.406;2023-02-14T04:56:47;-1.10;99.90
13344;DHT22;6741;48.964;9.406;2023-02-14T04:59:15;-1.10;99.90
13344;DHT22;6741;48.964;9.406;2023-02-14T05:01:42;-1.10;99.90
13344;DHT22;6741;48.964;9.406;2023-02-14T05:04:09;-1.10;99.90
13344;DHT22;6741;48.964;9.406;2023-02-14T05:06:36;-1.50;99.90
13344;DHT22;6741;48.964;9.406;2023-02-14T05:09:03;-1.80;99.90
13344;DHT22;6741;48.964;9.406;2023-02-14T05:11:30;-2.00;99.90
13344;DHT22;6741;48.964;9.406;2023-02-14T05:13:58;-2.00;99.90
13344;DHT22;6741;48.964;9.406;2023-02-14T05:16:26;-1.70;99.90
13344;DHT22;6741;48.964;9.406;2023-02-14T05:18:53;-0.80;99.90
13344;DHT22;6741;48.964;9.406;2023-02-14T05:21:20;-0.90;99.90
13344;DHT22;6741;48.964;9.406;2023-02-14T05:23:47;-1.00;99.90
13344;DHT22;6741;48.964;9.406;2023-02-14T05:26:14;-1.10;99.90
13344;DHT22;6741;48.964;9.406;2023-02-14T05:28:41;-1.20;99.90
13344;DHT22;6741;48.964;9.406;2023-02-14T05:31:08;-1.20;99.90
13344;DHT22;6741;48.964;9.406;2023-02-14T05:33:36;-1.20;99.90
13344;DHT22;6741;48.964;9.406;2023-02-14T05:36:03;-1.10;99.90
13344;DHT22;6741;48.964;9.406;2023-02-14T05:38:30;-1.10;99.90
13344;DHT22;6741;48.964;9.406;2023-02-14T05:40:59;-1.10;99.90
13344;DHT22;6741;48.964;9.406;2023-02-14T05:43:26;-1.20;99.90
13344;DHT22;6741;48.964;9.406;2023-02-14T05:45:54;-1.20;99.90
13344;DHT22;6741;48.964;9.406;2023-02-14T05:48:21;-1.20;99.90
13344;DHT22;6741;48.964;9.406;2023-02-14T05:50:50;-1.20;99.90
13344;DHT22;6741;48.964;9.406;2023-02-14T05:53:18;-1.20;99.90
13344;DHT22;6741;48.964;9.406;2023-02-14T05:55:47;-1.10;99.90
13344;DHT22;6741;48.964;9.406;2023-02-14T05:58:14;-1.00;99.90
13344;DHT22;6741;48.964;9.406;2023-02-14T06:00:42;-1.10;99.90
13344;DHT22;6741;48.964;9.406;2023-02-14T06:03:09;-1.20;99.90
13344;DHT22;6741;48.964;9.406;2023-02-14T06:05:35;-1.20;99.90
13344;DHT22;6741;48.964;9.406;2023-02-14T06:08:04;-1.20;99.90
13344;DHT22;6741;48.964;9.406;2023-02-14T06:10:32;-1.30;99.90
13344;DHT22;6741;48.964;9.406;2023-02-14T06:12:59;-1.30;99.90
13344;DHT22;6741;48.964;9.406;2023-02-14T06:15:26;-1.30;99.90
13344;DHT22;6741;48.964;9.406;2023-02-14T06:17:54;-1.30;99.90
13344;DHT22;6741;48.964;9.406;2023-02-14T06:20:22;-1.30;99.90
13344;DHT22;6741;48.964;9.406;2023-02-14T06:22:49;-1.30;99.90
13344;DHT22;6741;48.964;9.406;2023-02-14T06:25:18;-1.20;99.90
13344;DHT22;6741;48.964;9.406;2023-02-14T06:27:45;-1.20;99.90
13344;DHT22;6741;48.964;9.406;2023-02-14T06:30:13;-1.30;99.90
13344;DHT22;6741;48.964;9.406;2023-02-14T06:32:40;-1.20;99.90
13344;DHT22;6741;48.964;9.406;2023-02-14T06:35:08;-1.30;99.90
13344;DHT22;6741;48.964;9.406;2023-02-14T06:37:35;-1.30;99.90
13344;DHT22;6741;48.964;9.406;2023-02-14T06:40:03;-1.30;99.90
13344;DHT22;6741;48.964;9.406;2023-02-14T06:42:32;-1.40;99.90
13344;DHT22;6741;48.964;9.406;2023-02-14T06:44:59;-1.30;99.90
13344;DHT22;6741;48.964;9.406;2023-02-14T06:47:27;-1.30;99.90
13344;DHT22;6741;48.964;9.406;2023-02-14T06:49:53;-1.30;99.90
13344;DHT22;6741;48.964;9.406;2023-02-14T06:52:21;-1.30;99.90
13344;DHT22;6741;48.964;9.406;2023-02-14T06:54:47;-0.90;99.90
13344;DHT22;6741;48.964;9.406;2023-02-14T06:57:14;-0.90;99.90
13344;DHT22;6741;48.964;9.406;2023-02-14T06:59:43;-1.00;99.90
13344;DHT22;6741;48.964;9.406;2023-02-14T07:02:10;-1.10;99.90
13344;DHT22;6741;48.964;9.406;2023-02-14T07:04:37;-1.20;99.90
13344;DHT22;6741;48.964;9.406;2023-02-14T07:07:04;-1.20;99.90
13344;DHT22;6741;48.964;9.406;2023-02-14T07:09:31;-1.20;99.90
13344;DHT22;6741;48.964;9.406;2023-02-14T07:11:59;-1.20;99.90
13344;DHT22;6741;48.964;9.406;2023-02-14T07:14:26;-1.20;99.90
13344;DHT22;6741;48.964;9.406;2023-02-14T07:16:54;-1.20;99.90
13344;DHT22;6741;48.964;9.406;2023-02-14T07:19:21;-1.10;99.90
13344;DHT22;6741;48.964;9.406;2023-02-14T07:21:48;-1.10;99.90
13344;DHT22;6741;48.964;9.406;2023-02-14T07:24:15;-1.00;99.90
13344;DHT22;6741;48.964;9.406;2023-02-14T07:26:41;-1.00;99.90
13344;DHT22;6741;48.964;9.406;2023-02-14T07:29:08;-0.90;99.90
13344;DHT22;6741;48.964;9.406;2023-02-14T07:31:35;-0.80;99.90
13344;DHT22;6741;48.964;9.406;2023-02-14T07:34:04;-0.80;99.90
13344;DHT22;6741;48.964;9.406;2023-02-14T07:36:30;-0.70;99.90
13344;DHT22;6741;48.964;9.406;2023-02-14T07:38:57;-0.70;99.90
13344;DHT22;6741;48.964;9.406;2023-02-14T07:41:24;-0.70;99.90
13344;DHT22;6741;48.964;9.406;2023-02-14T07:43:51;-0.60;99.90
13344;DHT22;6741;48.964;9.406;2023-02-14T07:46:18;-0.60;99.90
13344;DHT22;6741;48.964;9.406;2023-02-14T07:48:45;-0.50;99.90
13344;DHT22;6741;48.964;9.406;2023-02-14T07:51:14;-0.50;99.90
13344;DHT22;6741;48.964;9.406;2023-02-14T07:53:41;-0.40;99.90
13344;DHT22;6741;48.964;9.406;2023-02-14T07:56:08;-0.30;99.90
13344;DHT22;6741;48.964;9.406;2023-02-14T07:58:35;-0.30;99.90
13344;DHT22;6741;48.964;9.406;2023-02-14T08:01:02;-0.30;99.90
13344;DHT22;6741;48.964;9.406;2023-02-14T08:03:29;-0.30;99.90
13344;DHT22;6741;48.964;9.406;2023-02-14T08:05:55;-0.20;99.90
13344;DHT22;6741;48.964;9.406;2023-02-14T08:08:25;-0.10;99.90
13344;DHT22;6741;48.964;9.406;2023-02-14T08:10:52;-0.10;99.90
13344;DHT22;6741;48.964;9.406;2023-02-14T08:13:20;-0.10;99.90
13344;DHT22;6741;48.964;9.406;2023-02-14T08:15:47;-0.10;99.90
13344;DHT22;6741;48.964;9.406;2023-02-14T08:18:35;0.00;99.90
13344;DHT22;6741;48.964;9.406;2023-02-14T08:21:03;0.10;99.90
13344;DHT22;6741;48.964;9.406;2023-02-14T08:23:32;0.20;99.90
13344;DHT22;6741;48.964;9.406;2023-02-14T08:25:59;0.20;99.90
13344;DHT22;6741;48.964;9.406;2023-02-14T08:28:26;0.30;99.90
13344;DHT22;6741;48.964;9.406;2023-02-14T08:30:54;0.30;99.90
13344;DHT22;6741;48.964;9.406;2023-02-14T08:33:21;0.30;99.90
13344;DHT22;6741;48.964;9.406;2023-02-14T08:35:49;0.40;99.90
13344;DHT22;6741;48.964;9.406;2023-02-14T08:38:16;0.40;99.90
13344;DHT22;6741;48.964;9.406;2023-02-14T08:40:45;0.50;99.90
13344;DHT22;6741;48.964;9.406;2023-02-14T08:43:12;0.60;99.90
13344;DHT22;6741;48.964;9.406;2023-02-14T08:45:39;0.60;99.90
13344;DHT22;6741;48.964;9.406;2023-02-14T08:48:08;0.50;99.90
13344;DHT22;6741;48.964;9.406;2023-02-14T08:50:36;0.50;99.90
13344;DHT22;6741;48.964;9.406;2023-02-14T08:53:06;0.00;99.90
13344;DHT22;6741;48.964;9.406;2023-02-14T08:55:33;-0.10;99.90
13344;DHT22;6741;48.964;9.406;2023-02-14T08:58:03;-0.30;99.90
13344;DHT22;6741;48.964;9.406;2023-02-14T09:00:31;0.30;99.90
13344;DHT22;6741;48.964;9.406;2023-02-14T09:02:59;0.70;99.90
13344;DHT22;6741;48.964;9.406;2023-02-14T09:05:25;0.80;99.90
13344;DHT22;6741;48.964;9.406;2023-02-14T09:07:52;1.00;99.90
13344;DHT22;6741;48.964;9.406;2023-02-14T09:10:22;1.10;99.90
13344;DHT22;6741;48.964;9.406;2023-02-14T09:12:50;1.10;99.90
13344;DHT22;6741;48.964;9.406;2023-02-14T09:15:19;1.30;99.90
13344;DHT22;6741;48.964;9.406;2023-02-14T09:17:46;1.40;99.90
13344;DHT22;6741;48.964;9.406;2023-02-14T09:20:14;1.40;99.90
13344;DHT22;6741;48.964;9.406;2023-02-14T09:22:41;1.50;99.90
13344;DHT22;6741;48.964;9.406;2023-02-14T09:25:08;1.70;99.90
13344;DHT22;6741;48.964;9.406;2023-02-14T09:27:35;1.80;99.90
13344;DHT22;6741;48.964;9.406;2023-02-14T09:30:02;1.90;99.90
13344;DHT22;6741;48.964;9.406;2023-02-14T09:32:31;2.00;99.90
13344;DHT22;6741;48.964;9.406;2023-02-14T09:34:58;2.00;99.90
13344;DHT22;6741;48.964;9.406;2023-02-14T09:37:25;2.00;99.90
13344;DHT22;6741;48.964;9.406;2023-02-14T09:40:12;2.20;99.90
13344;DHT22;6741;48.964;9.406;2023-02-14T09:42:50;2.20;99.90
13344;DHT22;6741;48.964;9.406;2023-02-14T09:45:20;2.30;99.90
13344;DHT22;6741;48.964;9.406;2023-02-14T09:47:52;2.50;99.90
13344;DHT22;6741;48.964;9.406;2023-02-14T09:50:24;2.60;99.90
13344;DHT22;6741;48.964;9.406;2023-02-14T09:52:56;2.60;99.90
13344;DHT22;6741;48.964;9.406;2023-02-14T09:55:28;2.60;99.90
13344;DHT22;6741;48.964;9.406;2023-02-14T09:58:04;2.70;99.90
13344;DHT22;6741;48.964;9.406;2023-02-14T10:00:35;2.90;99.90
13344;DHT22;6741;48.964;9.406;2023-02-14T10:03:28;2.90;99.90
13344;DHT22;6741;48.964;9.406;2023-02-14T10:06:01;3.00;99.90
13344;DHT22;6741;48.964;9.406;2023-02-14T10:08:42;3.10;99.90
13344;DHT22;6741;48.964;9.406;2023-02-14T10:11:16;3.30;99.90
13344;DHT22;6741;48.964;9.406;2023-02-14T10:13:48;3.50;99.90
13344;DHT22;6741;48.964;9.406;2023-02-14T10:16:21;3.70;99.90
13344;DHT22;6741;48.964;9.406;2023-02-14T10:18:56;4.10;99.90
13344;DHT22;6741;48.964;9.406;2023-02-14T10:21:29;4.50;99.90
13344;DHT22;6741;48.964;9.406;2023-02-14T10:24:01;4.70;99.90
13344;DHT22;6741;48.964;9.406;2023-02-14T10:26:34;5.10;98.40
13344;DHT22;6741;48.964;9.406;2023-02-14T10:29:04;5.50;91.80
13344;DHT22;6741;48.964;9.406;2023-02-14T10:31:38;5.90;60.00
13344;DHT22;6741;48.964;9.406;2023-02-14T10:34:14;6.30;40.00
13344;DHT22;6741;48.964;9.406;2023-02-14T10:36:49;6.70;1.00
13344;DHT22;6741;48.964;9.406;2023-02-14T10:39:49;7.10;1.00
13344;DHT22;6741;48.964;9.406;2023-02-14T10:42:24;7.40;1.00
13344;DHT22;6741;48.964;9.406;2023-02-14T10:44:59;7.90;1.00
13344;DHT22;6741;48.964;9.406;2023-02-14T10:47:38;8.70;1.00
13344;DHT22;6741;48.964;9.406;2023-02-14T10:50:15;9.20;1.00
13344;DHT22;6741;48.964;9.406;2023-02-14T10:52:49;9.40;38.00
13344;DHT22;6741;48.964;9.406;2023-02-14T10:55:25;9.90;99.90
13344;DHT22;6741;48.964;9.406;2023-02-14T10:57:55;10.00;99.90
13344;DHT22;6741;48.964;9.406;2023-02-14T11:00:25;10.60;1.00
13344;DHT22;6741;48.964;9.406;2023-02-14T11:02:56;11.40;1.00
13344;DHT22;6741;48.964;9.406;2023-02-14T11:05:29;12.00;1.00
13344;DHT22;6741;48.964;9.406;2023-02-14T11:07:56;12.40;99.90
13344;DHT22;6741;48.964;9.406;2023-02-14T11:10:26;12.30;1.00
13344;DHT22;6741;48.964;9.406;2023-02-14T11:12:54;12.80;1.00
13344;DHT22;6741;48.964;9.406;2023-02-14T11:15:24;13.00;1.00
13344;DHT22;6741;48.964;9.406;2023-02-14T11:18:23;13.30;1.00
13344;DHT22;6741;48.964;9.406;2023-02-14T11:21:03;13.70;1.00
13344;DHT22;6741;48.964;9.406;2023-02-14T11:23:36;14.00;1.00
13344;DHT22;6741;48.964;9.406;2023-02-14T11:26:04;13.80;1.00
13344;DHT22;6741;48.964;9.406;2023-02-14T11:28:33;14.40;1.00
13344;DHT22;6741;48.964;9.406;2023-02-14T11:31:01;15.10;1.00
13344;DHT22;6741;48.964;9.406;2023-02-14T11:33:33;15.70;1.00
13344;DHT22;6741;48.964;9.406;2023-02-14T11:36:05;16.50;1.00
13344;DHT22;6741;48.964;9.406;2023-02-14T11:38:36;16.60;1.00
13344;DHT22;6741;48.964;9.406;2023-02-14T11:41:06;17.10;1.00
13344;DHT22;6741;48.964;9.406;2023-02-14T11:43:35;17.30;99.90
13344;DHT22;6741;48.964;9.406;2023-02-14T11:46:12;17.10;1.00
13344;DHT22;6741;48.964;9.406;2023-02-14T11:48:54;17.30;99.90
13344;DHT22;6741;48.964;9.406;2023-02-14T11:51:28;18.40;95.50
13344;DHT22;6741;48.964;9.406;2023-02-14T11:53:58;18.50;99.90
13344;DHT22;6741;48.964;9.406;2023-02-14T11:56:47;18.90;99.90
13344;DHT22;6741;48.964;9.406;2023-02-14T11:59:24;19.00;99.90
13344;DHT22;6741;48.964;9.406;2023-02-14T12:01:53;19.10;99.90
13344;DHT22;6741;48.964;9.406;2023-02-14T12:04:27;19.20;99.90
13344;DHT22;6741;48.964;9.406;2023-02-14T12:07:14;19.80;1.00
13344;DHT22;6741;48.964;9.406;2023-02-14T12:09:41;20.50;1.00
13344;DHT22;6741;48.964;9.406;2023-02-14T12:12:15;21.10;99.90
13344;DHT22;6741;48.964;9.406;2023-02-14T12:14:42;20.50;99.90
13344;DHT22;6741;48.964;9.406;2023-02-14T12:17:22;19.40;99.90
13344;DHT22;6741;48.964;9.406;2023-02-14T12:19:54;19.70;1.00
13344;DHT22;6741;48.964;9.406;2023-02-14T12:22:30;21.10;1.00
13344;DHT22;6741;48.964;9.406;2023-02-14T12:25:02;20.90;1.00
13344;DHT22;6741;48.964;9.406;2023-02-14T12:27:46;20.80;1.00
13344;DHT22;6741;48.964;9.406;2023-02-14T12:30:17;20.70;99.90
13344;DHT22;6741;48.964;9.406;2023-02-14T12:32:47;20.50;99.90
13344;DHT22;6741;48.964;9.406;2023-02-14T12:35:16;21.30;99.90
13344;DHT22;6741;48.964;9.406;2023-02-14T12:37:56;21.90;1.00
13344;DHT22;6741;48.964;9.406;2023-02-14T12:40:34;22.10;1.00
13344;DHT22;6741;48.964;9.406;2023-02-14T12:46:27;21.90;99.90
13344;DHT22;6741;48.964;9.406;2023-02-14T12:49:18;22.50;99.90
13344;DHT22;6741;48.964;9.406;2023-02-14T12:51:53;23.00;1.00
13344;DHT22;6741;48.964;9.406;2023-02-14T12:54:35;23.20;1.00
13344;DHT22;6741;48.964;9.406;2023-02-14T12:57:15;24.10;99.90
13344;DHT22;6741;48.964;9.406;2023-02-14T12:59:55;24.30;1.00
13344;DHT22;6741;48.964;9.406;2023-02-14T13:02:45;24.90;1.00
13344;DHT22;6741;48.964;9.406;2023-02-14T13:05:20;23.40;99.90
13344;DHT22;6741;48.964;9.406;2023-02-14T13:08:01;22.40;99.90
13344;DHT22;6741;48.964;9.406;2023-02-14T13:10:43;23.80;99.90
13344;DHT22;6741;48.964;9.406;2023-02-14T13:13:20;24.30;99.90
13344;DHT22;6741;48.964;9.406;2023-02-14T13:15:55;24.30;1.00
13344;DHT22;6741;48.964;9.406;2023-02-14T13:18:33;25.50;99.90
13344;DHT22;6741;48.964;9.406;2023-02-14T13:21:06;25.10;1.00
13344;DHT22;6741;48.964;9.406;2023-02-14T13:23:37;24.60;1.00
13344;DHT22;6741;48.964;9.406;2023-02-14T13:26:11;25.40;1.00
13344;DHT22;6741;48.964;9.406;2023-02-14T13:28:45;25.50;1.00
13344;DHT22;6741;48.964;9.406;2023-02-14T13:31:13;24.30;1.00
13344;DHT22;6741;48.964;9.406;2023-02-14T13:33:43;23.40;1.00
13344;DHT22;6741;48.964;9.406;2023-02-14T13:36:12;22.80;1.00
13344;DHT22;6741;48.964;9.406;2023-02-14T13:38:42;22.40;1.00
13344;DHT22;6741;48.964;9.406;2023-02-14T13:41:11;23.00;1.00
13344;DHT22;6741;48.964;9.406;2023-02-14T13:43:48;22.00;1.00
13344;DHT22;6741;48.964;9.406;2023-02-14T13:46:17;22.30;1.00
13344;DHT22;6741;48.964;9.406;2023-02-14T13:48:58;22.90;1.00
13344;DHT22;6741;48.964;9.406;2023-02-14T13:51:46;23.50;1.00
13344;DHT22;6741;48.964;9.406;2023-02-14T13:54:21;23.00;1.00
13344;DHT22;6741;48.964;9.406;2023-02-14T13:56:55;22.90;1.00
13344;DHT22;6741;48.964;9.406;2023-02-14T13:59:26;22.90;1.00
13344;DHT22;6741;48.964;9.406;2023-02-14T14:01:54;23.30;1.00
13344;DHT22;6741;48.964;9.406;2023-02-14T14:04:35;24.30;1.00
13344;DHT22;6741;48.964;9.406;2023-02-14T14:07:18;25.30;1.00
13344;DHT22;6741;48.964;9.406;2023-02-14T14:09:57;23.90;1.00
13344;DHT22;6741;48.964;9.406;2023-02-14T14:12:42;23.50;1.00
13344;DHT22;6741;48.964;9.406;2023-02-14T14:15:14;22.90;1.00
13344;DHT22;6741;48.964;9.406;2023-02-14T14:17:45;23.40;1.00
13344;DHT22;6741;48.964;9.406;2023-02-14T14:20:38;22.00;1.00
13344;DHT22;6741;48.964;9.406;2023-02-14T14:23:28;20.80;1.00
13344;DHT22;6741;48.964;9.406;2023-02-14T14:25:56;18.90;1.00
13344;DHT22;6741;48.964;9.406;2023-02-14T14:28:27;19.50;99.90
13344;DHT22;6741;48.964;9.406;2023-02-14T14:30:56;20.20;99.90
13344;DHT22;6741;48.964;9.406;2023-02-14T14:33:25;18.40;1.00
13344;DHT22;6741;48.964;9.406;2023-02-14T14:35:54;19.10;99.90
13344;DHT22;6741;48.964;9.406;2023-02-14T14:38:23;16.20;1.00
13344;DHT22;6741;48.964;9.406;2023-02-14T14:40:50;16.10;99.90
13344;DHT22;6741;48.964;9.406;2023-02-14T14:43:23;17.10;1.00
13344;DHT22;6741;48.964;9.406;2023-02-14T14:45:53;17.70;1.00
13344;DHT22;6741;48.964;9.406;2023-02-14T14:48:27;18.00;1.00
13344;DHT22;6741;48.964;9.406;2023-02-14T14:50:55;18.40;1.00
13344;DHT22;6741;48.964;9.406;2023-02-14T14:53:26;18.10;1.00
13344;DHT22;6741;48.964;9.406;2023-02-14T14:55:55;18.60;99.90
13344;DHT22;6741;48.964;9.406;2023-02-14T14:58:34;17.10;1.00
13344;DHT22;6741;48.964;9.406;2023-02-14T15:01:03;17.10;99.90
13344;DHT22;6741;48.964;9.406;2023-02-14T15:03:32;16.00;1.00
13344;DHT22;6741;48.964;9.406;2023-02-14T15:06:12;12.90;1.00
13344;DHT22;6741;48.964;9.406;2023-02-14T15:08:41;11.60;1.00
13344;DHT22;6741;48.964;9.406;2023-02-14T15:11:11;11.00;1.00
13344;DHT22;6741;48.964;9.406;2023-02-14T15:14:00;10.40;1.00
13344;DHT22;6741;48.964;9.406;2023-02-14T15:16:37;10.20;1.00
13344;DHT22;6741;48.964;9.406;2023-02-14T15:19:09;10.00;1.00
13344;DHT22;6741;48.964;9.406;2023-02-14T15:21:39;10.00;1.00
13344;DHT22;6741;48.964;9.406;2023-02-14T15:24:12;9.90;1.00
13344;DHT22;6741;48.964;9.406;2023-02-14T15:26:42;9.70;1.00
13344;DHT22;6741;48.964;9.406;2023-02-14T15:29:20;9.50;1.00
13344;DHT22;6741;48.964;9.406;2023-02-14T15:31:49;9.50;1.00
13344;DHT22;6741;48.964;9.406;2023-02-14T15:34:18;9.30;1.00
13344;DHT22;6741;48.964;9.406;2023-02-14T15:36:46;9.10;1.00
13344;DHT22;6741;48.964;9.406;2023-02-14T15:39:18;9.00;1.00
13344;DHT22;6741;48.964;9.406;2023-02-14T15:41:46;8.90;1.00
13344;DHT22;6741;48.964;9.406;2023-02-14T15:44:18;8.90;1.00
13344;DHT22;6741;48.964;9.406;2023-02-14T15:46:47;8.80;1.00
13344;DHT22;6741;48.964;9.406;2023-02-14T15:49:20;8.70;1.00
13344;DHT22;6741;48.964;9.406;2023-02-14T15:51:49;8.60;1.00
13344;DHT22;6741;48.964;9.406;2023-02-14T15:54:21;8.50;1.00
13344;DHT22;6741;48.964;9.406;2023-02-14T15:56:50;8.30;1.00
13344;DHT22;6741;48.964;9.406;2023-02-14T15:59:20;8.20;4.70
13344;DHT22;6741;48.964;9.406;2023-02-14T16:01:51;8.00;11.30
13344;DHT22;6741;48.964;9.406;2023-02-14T16:04:22;8.00;21.00
13344;DHT22;6741;48.964;9.406;2023-02-14T16:07:03;7.80;24.50
13344;DHT22;6741;48.964;9.406;2023-02-14T16:09:32;7.80;26.70
13344;DHT22;6741;48.964;9.406;2023-02-14T16:15:00;7.50;49.70
13344;DHT22;6741;48.964;9.406;2023-02-14T16:17:32;7.30;65.20
13344;DHT22;6741;48.964;9.406;2023-02-14T16:25:13;7.10;70.00
13344;DHT22;6741;48.964;9.406;2023-02-14T16:27:41;7.00;78.60
13344;DHT22;6741;48.964;9.406;2023-02-14T16:30:15;6.80;88.50
13344;DHT22;6741;48.964;9.406;2023-02-14T16:32:47;6.70;93.80
13344;DHT22;6741;48.964;9.406;2023-02-14T16:35:19;6.60;96.20
13344;DHT22;6741;48.964;9.406;2023-02-14T16:37:49;6.50;98.10
13344;DHT22;6741;48.964;9.406;2023-02-14T16:40:18;6.40;99.90
13344;DHT22;6741;48.964;9.406;2023-02-14T16:42:46;6.40;99.90